createdAt,value
2023-02-03T00:01:50.166Z,97150.03
2023-02-03T00:04:16.761Z,97145.84
2023-02-03T00:06:44.019Z,97152.41
2023-02-03T00:09:10.765Z,97156.09
2023-02-03T00:11:37.766Z,97151.72
2023-02-03T00:14:04.471Z,97149.81
2023-02-03T00:16:31.465Z,97152.97
2023-02-03T00:18:57.995Z,97149.41
2023-02-03T00:21:25.323Z,97153.41
2023-02-03T00:23:51.826Z,97152.56
2023-02-03T00:26:18.556Z,97141.06
2023-02-03T00:28:45.511Z,97147.75
2023-02-03T00:31:21.178Z,97142.72
2023-02-03T00:33:52.926Z,97143.16
2023-02-03T00:36:19.449Z,97148.06
2023-02-03T00:38:45.900Z,97146.59
2023-02-03T00:41:12.391Z,97143.78
2023-02-03T00:43:38.970Z,97146.06
2023-02-03T00:46:05.508Z,97143.94
2023-02-03T00:48:32.016Z,97140.81
2023-02-03T00:50:58.537Z,97137.88
2023-02-03T00:53:24.989Z,97142.69
2023-02-03T00:55:51.449Z,97139.88
2023-02-03T00:58:17.923Z,97132.00
2023-02-03T01:00:44.376Z,97136.31
2023-02-03T01:03:10.865Z,97128.44
2023-02-03T01:05:37.368Z,97132.22
2023-02-03T01:08:04.045Z,97137.66
2023-02-03T01:10:30.607Z,97140.28
2023-02-03T01:12:57.159Z,97142.16
2023-02-03T01:15:23.626Z,97146.72
2023-02-03T01:17:50.114Z,97141.22
2023-02-03T01:20:16.726Z,97139.56
2023-02-03T01:22:43.199Z,97152.09
2023-02-03T01:25:09.798Z,97150.34
2023-02-03T01:27:36.477Z,97145.38
2023-02-03T01:30:03.247Z,97157.53
2023-02-03T01:32:29.749Z,97161.09
2023-02-03T01:34:56.230Z,97165.41
2023-02-03T01:37:22.750Z,97174.50
2023-02-03T01:39:49.246Z,97175.66
2023-02-03T01:42:16.295Z,97174.72
2023-02-03T01:44:49.115Z,97181.75
2023-02-03T01:47:18.989Z,97185.41
2023-02-03T01:49:55.808Z,97183.66
2023-02-03T01:52:23.271Z,97182.63
2023-02-03T01:54:53.623Z,97181.44
2023-02-03T01:57:27.060Z,97184.59
2023-02-03T01:59:58.995Z,97184.19
2023-02-03T02:02:25.710Z,97187.94
2023-02-03T02:05:31.042Z,97184.53
2023-02-03T02:08:01.644Z,97177.91
2023-02-03T02:10:30.333Z,97174.34
2023-02-03T02:13:03.263Z,97173.63
2023-02-03T02:15:58.187Z,97163.94
2023-02-03T02:18:39.970Z,97172.06
2023-02-03T02:21:43.902Z,97163.56
2023-02-03T02:24:44.411Z,97160.53
2023-02-03T02:27:48.485Z,97169.91
2023-02-03T02:30:56.827Z,97182.38
2023-02-03T02:33:53.500Z,97173.81
2023-02-03T02:36:49.848Z,97174.25
2023-02-03T02:39:54.650Z,97169.28
2023-02-03T02:42:41.269Z,97173.03
2023-02-03T02:45:20.776Z,97172.72
2023-02-03T02:47:49.640Z,97176.97
2023-02-03T02:50:28.798Z,97178.16
2023-02-03T02:52:57.669Z,97171.97
2023-02-03T02:55:28.541Z,97169.41
2023-02-03T02:58:04.653Z,97161.31
2023-02-03T03:00:34.389Z,97158.22
2023-02-03T03:03:15.644Z,97162.03
2023-02-03T03:05:48.577Z,97154.25
2023-02-03T03:08:21.242Z,97144.13
2023-02-03T03:10:48.780Z,97155.13
2023-02-03T03:13:24.893Z,97158.50
2023-02-03T03:15:56.733Z,97168.84
2023-02-03T03:18:38.786Z,97165.88
2023-02-03T03:21:07.510Z,97158.63
2023-02-03T03:23:44.901Z,97159.34
2023-02-03T03:26:32.273Z,97161.25
2023-02-03T03:29:14.750Z,97157.69
2023-02-03T03:31:41.938Z,97151.03
2023-02-03T03:34:12.176Z,97152.00
2023-02-03T03:36:58.000Z,97159.84
2023-02-03T03:39:35.367Z,97161.03
2023-02-03T03:42:15.135Z,97153.28
2023-02-03T03:44:58.799Z,97158.41
2023-02-03T03:47:39.673Z,97157.81
2023-02-03T03:50:11.562Z,97164.44
2023-02-03T03:52:41.573Z,97166.22
2023-02-03T03:55:12.922Z,97160.72
2023-02-03T03:58:06.863Z,97154.47
2023-02-03T04:00:37.571Z,97147.06
2023-02-03T04:03:17.618Z,97156.09
2023-02-03T04:05:44.389Z,97144.31
2023-02-03T04:08:10.854Z,97141.56
2023-02-03T04:10:40.946Z,97136.47
2023-02-03T04:13:09.201Z,97133.81
2023-02-03T04:15:38.876Z,97135.88
2023-02-03T04:18:05.696Z,97129.09
2023-02-03T04:20:33.182Z,97122.91
2023-02-03T04:23:00.402Z,97134.81
2023-02-03T04:25:26.931Z,97128.84
2023-02-03T04:27:54.280Z,97124.78
2023-02-03T04:30:20.923Z,97129.19
2023-02-03T04:32:47.557Z,97123.31
2023-02-03T04:35:14.596Z,97125.16
2023-02-03T04:37:41.492Z,97112.75
2023-02-03T04:40:08.898Z,97106.44
2023-02-03T04:42:37.614Z,97104.84
2023-02-03T04:45:05.895Z,97109.03
2023-02-03T04:47:32.372Z,97095.94
2023-02-03T04:49:58.884Z,97084.09
2023-02-03T04:52:25.361Z,97081.81
2023-02-03T04:54:51.850Z,97088.13
2023-02-03T04:57:18.361Z,97081.59
2023-02-03T04:59:44.843Z,97079.69
2023-02-03T05:02:11.398Z,97088.31
2023-02-03T05:04:38.571Z,97087.69
2023-02-03T05:07:05.020Z,97086.13
2023-02-03T05:09:31.502Z,97091.66
2023-02-03T05:11:57.964Z,97085.16
2023-02-03T05:14:24.419Z,97090.19
2023-02-03T05:16:50.962Z,97100.25
2023-02-03T05:19:17.540Z,97102.13
2023-02-03T05:21:44.018Z,97101.28
2023-02-03T05:24:10.539Z,97108.09
2023-02-03T05:26:37.072Z,97113.75
2023-02-03T05:29:03.942Z,97109.25
2023-02-03T05:31:30.484Z,97099.72
2023-02-03T05:33:57.072Z,97093.75
2023-02-03T05:36:23.565Z,97090.84
2023-02-03T05:38:50.204Z,97087.50
2023-02-03T05:41:16.657Z,97092.94
2023-02-03T05:43:43.147Z,97087.16
2023-02-03T05:46:09.690Z,97082.66
2023-02-03T05:48:36.410Z,97082.44
2023-02-03T05:51:03.095Z,97095.84
2023-02-03T05:53:29.645Z,97102.31
2023-02-03T05:55:56.292Z,97105.00
2023-02-03T05:58:22.970Z,97108.53
2023-02-03T06:00:52.483Z,97114.78
2023-02-03T06:03:18.975Z,97113.97
2023-02-03T06:05:45.467Z,97118.69
2023-02-03T06:08:11.965Z,97123.34
2023-02-03T06:10:38.475Z,97130.94
2023-02-03T06:13:11.008Z,97137.06
2023-02-03T06:15:37.693Z,97135.28
2023-02-03T06:18:04.278Z,97140.19
2023-02-03T06:20:30.978Z,97139.41
2023-02-03T06:22:57.468Z,97154.66
2023-02-03T06:25:24.001Z,97152.16
2023-02-03T06:27:51.121Z,97163.53
2023-02-03T06:30:18.048Z,97169.50
2023-02-03T06:32:44.502Z,97167.91
2023-02-03T06:35:10.997Z,97171.59
2023-02-03T06:37:37.456Z,97166.69
2023-02-03T06:40:04.628Z,97149.41
2023-02-03T06:42:32.010Z,97153.78
2023-02-03T06:44:58.512Z,97154.06
2023-02-03T06:47:24.987Z,97142.03
2023-02-03T06:49:51.576Z,97135.34
2023-02-03T06:52:18.667Z,97153.47
2023-02-03T06:54:45.153Z,97162.59
2023-02-03T06:57:11.652Z,97169.25
2023-02-03T06:59:38.141Z,97178.81
2023-02-03T07:02:04.615Z,97169.47
2023-02-03T07:04:31.123Z,97160.16
2023-02-03T07:06:57.619Z,97159.75
2023-02-03T07:09:24.101Z,97157.53
2023-02-03T07:11:50.580Z,97156.13
2023-02-03T07:14:17.129Z,97157.13
2023-02-03T07:16:43.589Z,97154.47
2023-02-03T07:19:10.066Z,97149.72
2023-02-03T07:21:36.632Z,97135.41
2023-02-03T07:24:03.198Z,97143.81
2023-02-03T07:26:29.690Z,97135.44
2023-02-03T07:28:56.152Z,97131.50
2023-02-03T07:31:22.711Z,97137.09
2023-02-03T07:33:49.402Z,97137.84
2023-02-03T07:36:15.873Z,97133.72
2023-02-03T07:38:42.400Z,97133.56
2023-02-03T07:41:08.873Z,97133.00
2023-02-03T07:43:35.490Z,97147.16
2023-02-03T07:46:02.039Z,97156.00
2023-02-03T07:48:28.524Z,97156.09
2023-02-03T07:50:54.962Z,97161.06
2023-02-03T07:53:21.481Z,97177.53
2023-02-03T07:55:48.031Z,97187.78
2023-02-03T07:58:14.515Z,97189.50
2023-02-03T08:00:41.019Z,97193.91
2023-02-03T08:03:07.675Z,97187.88
2023-02-03T08:05:34.217Z,97187.16
2023-02-03T08:08:00.930Z,97179.97
2023-02-03T08:10:27.757Z,97174.53
2023-02-03T08:12:55.983Z,97183.66
2023-02-03T08:15:22.547Z,97179.47
2023-02-03T08:17:50.317Z,97175.78
2023-02-03T08:20:18.038Z,97178.41
2023-02-03T08:22:44.860Z,97180.59
2023-02-03T08:25:11.389Z,97191.28
2023-02-03T08:27:39.690Z,97207.84
2023-02-03T08:30:08.315Z,97205.31
2023-02-03T08:32:34.864Z,97196.41
2023-02-03T08:35:01.610Z,97187.47
2023-02-03T08:37:28.316Z,97192.97
2023-02-03T08:39:54.847Z,97205.72
2023-02-03T08:42:21.364Z,97213.38
2023-02-03T08:44:47.877Z,97217.47
2023-02-03T08:47:14.435Z,97220.31
2023-02-03T08:49:41.199Z,97210.84
2023-02-03T08:52:11.134Z,97204.28
2023-02-03T08:54:38.241Z,97208.06
2023-02-03T08:57:05.157Z,97217.22
2023-02-03T08:59:31.939Z,97226.44
2023-02-03T09:01:58.397Z,97222.38
2023-02-03T09:04:26.906Z,97231.31
2023-02-03T09:06:54.572Z,97229.09
2023-02-03T09:09:22.237Z,97229.78
2023-02-03T09:11:48.866Z,97236.94
2023-02-03T09:14:15.315Z,97242.16
2023-02-03T09:16:44.900Z,97233.06
2023-02-03T09:19:11.556Z,97229.28
2023-02-03T09:21:39.285Z,97220.78
2023-02-03T09:24:12.945Z,97224.06
2023-02-03T09:26:39.474Z,97217.84
2023-02-03T09:29:06.281Z,97224.81
2023-02-03T09:31:32.765Z,97224.06
2023-02-03T09:33:59.848Z,97220.47
2023-02-03T09:36:26.880Z,97221.31
2023-02-03T09:38:53.403Z,97216.91
2023-02-03T09:41:36.079Z,97219.09
2023-02-03T09:44:15.043Z,97233.06
2023-02-03T09:46:53.280Z,97232.31
2023-02-03T09:49:36.049Z,97241.53
2023-02-03T09:52:23.511Z,97228.13
2023-02-03T09:55:10.255Z,97228.59
2023-02-03T09:57:52.221Z,97235.63
2023-02-03T10:00:35.710Z,97226.44
2023-02-03T10:03:20.767Z,97219.88
2023-02-03T10:05:58.889Z,97202.75
2023-02-03T10:08:50.188Z,97211.34
2023-02-03T10:11:31.767Z,97215.41
2023-02-03T10:14:47.504Z,97212.25
2023-02-03T10:17:33.965Z,97212.47
2023-02-03T10:20:18.380Z,97209.69
2023-02-03T10:22:53.835Z,97201.00
2023-02-03T10:25:28.896Z,97202.41
2023-02-03T10:28:00.964Z,97208.91
2023-02-03T10:30:33.766Z,97209.19
2023-02-03T10:33:10.680Z,97209.25
2023-02-03T10:35:51.717Z,97204.72
2023-02-03T10:38:41.895Z,97207.34
2023-02-03T10:41:09.459Z,97200.78
2023-02-03T10:43:36.715Z,97202.94
2023-02-03T10:46:03.487Z,97202.22
2023-02-03T10:48:30.010Z,97193.25
2023-02-03T10:50:58.393Z,97187.75
2023-02-03T10:53:33.803Z,97186.53
2023-02-03T10:56:13.997Z,97184.31
2023-02-03T10:58:48.700Z,97180.72
2023-02-03T11:01:19.269Z,97168.63
2023-02-03T11:03:57.649Z,97168.63
2023-02-03T11:06:24.459Z,97171.94
2023-02-03T11:08:51.742Z,97158.16
2023-02-03T11:11:22.341Z,97156.41
2023-02-03T11:13:54.197Z,97164.50
2023-02-03T11:16:23.181Z,97166.63
2023-02-03T11:18:57.462Z,97172.75
2023-02-03T11:21:29.896Z,97164.50
2023-02-03T11:24:20.402Z,97171.84
2023-02-03T11:26:54.471Z,97172.38
2023-02-03T11:29:27.292Z,97165.69
2023-02-03T11:32:01.334Z,97166.63
2023-02-03T11:34:32.762Z,97159.03
2023-02-03T11:37:25.566Z,97174.44
2023-02-03T11:40:08.625Z,97166.94
2023-02-03T11:42:38.386Z,97169.47
2023-02-03T11:45:25.888Z,97156.78
2023-02-03T11:48:18.233Z,97156.19
2023-02-03T11:50:59.380Z,97152.56
2023-02-03T11:53:32.214Z,97147.81
2023-02-03T11:56:29.464Z,97149.72
2023-02-03T11:59:33.419Z,97135.88
2023-02-03T12:02:14.804Z,97133.84
2023-02-03T12:05:00.851Z,97139.25
2023-02-03T12:08:09.600Z,97136.16
2023-02-03T12:11:07.205Z,97137.81
2023-02-03T12:13:45.482Z,97133.53
2023-02-03T12:16:47.393Z,97123.84
2023-02-03T12:19:57.785Z,97114.91
2023-02-03T12:22:46.288Z,97120.41
2023-02-03T12:25:33.619Z,97116.69
2023-02-03T12:28:03.052Z,97113.25
2023-02-03T12:30:37.644Z,97115.88
2023-02-03T12:33:19.151Z,97108.94
2023-02-03T12:36:09.291Z,97111.13
2023-02-03T12:38:44.796Z,97089.75
2023-02-03T12:41:21.774Z,97103.69
2023-02-03T12:43:55.053Z,97103.84
2023-02-03T12:46:35.838Z,97109.44
2023-02-03T12:49:21.186Z,97086.00
2023-02-03T12:52:06.964Z,97086.47
2023-02-03T12:54:55.016Z,97080.00
2023-02-03T12:57:44.653Z,97080.75
2023-02-03T13:00:48.519Z,97083.88
2023-02-03T13:03:24.220Z,97078.50
2023-02-03T13:06:04.727Z,97074.25
2023-02-03T13:08:49.800Z,97076.94
2023-02-03T13:11:31.218Z,97064.25
2023-02-03T13:14:15.057Z,97061.94
2023-02-03T13:16:53.559Z,97055.00
2023-02-03T13:19:30.815Z,97048.00
2023-02-03T13:21:57.387Z,97049.88
2023-02-03T13:24:27.508Z,97055.78
2023-02-03T13:27:03.999Z,97047.31
2023-02-03T13:29:38.055Z,97045.97
2023-02-03T13:32:15.736Z,97044.38
2023-02-03T13:35:10.914Z,97033.34
2023-02-03T13:38:07.050Z,97025.59
2023-02-03T13:41:02.862Z,97035.88
2023-02-03T13:43:40.191Z,97040.41
2023-02-03T13:46:21.414Z,97048.34
2023-02-03T13:48:48.408Z,97040.50
2023-02-03T13:51:20.976Z,97036.31
2023-02-03T13:53:50.717Z,97030.44
2023-02-03T13:56:24.881Z,97033.97
2023-02-03T13:59:19.889Z,97027.38
2023-02-03T14:01:46.516Z,97019.03
2023-02-03T14:04:21.853Z,97021.44
2023-02-03T14:06:48.422Z,97026.28
2023-02-03T14:09:30.066Z,97030.81
2023-02-03T14:12:14.774Z,97051.69
2023-02-03T14:14:56.999Z,97051.47
2023-02-03T14:17:35.388Z,97044.47
2023-02-03T14:20:25.448Z,97044.19
2023-02-03T14:23:07.809Z,97040.44
2023-02-03T14:25:43.492Z,97028.09
2023-02-03T14:28:37.965Z,97036.00
2023-02-03T14:31:09.992Z,97038.94
2023-02-03T14:33:48.379Z,97035.03
2023-02-03T14:36:35.523Z,97030.19
2023-02-03T14:39:39.855Z,97034.03
2023-02-03T14:42:21.460Z,97035.66
2023-02-03T14:45:07.137Z,97033.53
2023-02-03T14:47:55.625Z,97022.06
2023-02-03T14:51:02.581Z,97010.78
2023-02-03T14:53:45.874Z,97004.13
2023-02-03T14:56:33.973Z,97003.41
2023-02-03T14:59:12.622Z,97010.34
2023-02-03T15:01:39.120Z,97010.50
2023-02-03T15:04:23.005Z,97013.19
2023-02-03T15:06:52.567Z,97013.53
2023-02-03T15:09:37.582Z,97008.06
2023-02-03T15:12:17.821Z,97017.44
2023-02-03T15:14:47.303Z,96996.84
2023-02-03T15:17:27.149Z,96990.47
2023-02-03T15:19:54.170Z,96986.81
2023-02-03T15:22:23.796Z,96979.34
2023-02-03T15:25:00.287Z,96985.31
2023-02-03T15:27:29.526Z,96982.28
2023-02-03T15:29:56.125Z,96983.78
2023-02-03T15:32:35.893Z,96985.66
2023-02-03T15:35:09.569Z,96979.38
2023-02-03T15:37:50.357Z,96982.28
2023-02-03T15:40:23.562Z,96991.22
2023-02-03T15:43:06.578Z,96993.56
2023-02-03T15:45:38.400Z,97001.78
2023-02-03T15:48:13.414Z,96998.50
2023-02-03T15:50:51.801Z,96989.78
2023-02-03T15:53:46.679Z,96987.84
2023-02-03T15:56:28.347Z,96988.94
2023-02-03T15:58:54.867Z,96999.06
2023-02-03T16:01:23.828Z,96983.94
2023-02-03T16:03:54.307Z,97000.53
2023-02-03T16:06:37.709Z,97004.53
2023-02-03T16:09:06.573Z,97016.44
2023-02-03T16:11:39.381Z,97017.97
2023-02-03T16:14:10.827Z,97024.22
2023-02-03T16:16:55.211Z,97021.34
2023-02-03T16:19:29.074Z,97012.81
2023-02-03T16:21:57.654Z,97010.88
2023-02-03T16:24:42.899Z,97024.81
2023-02-03T16:27:28.063Z,97021.91
2023-02-03T16:30:14.751Z,97033.00
2023-02-03T16:32:41.236Z,97043.59
2023-02-03T16:35:10.247Z,97049.69
2023-02-03T16:37:44.337Z,97042.97
2023-02-03T16:40:13.250Z,97044.53
2023-02-03T16:42:40.892Z,97048.69
2023-02-03T16:45:18.263Z,97046.66
2023-02-03T16:47:46.260Z,97038.06
2023-02-03T16:50:15.139Z,97038.19
2023-02-03T16:52:41.661Z,97048.22
2023-02-03T16:55:09.143Z,97054.09
2023-02-03T16:57:35.632Z,97059.31
2023-02-03T17:00:03.320Z,97062.91
2023-02-03T17:02:30.181Z,97064.00
2023-02-03T17:04:56.718Z,97073.53
2023-02-03T17:07:23.226Z,97063.63
2023-02-03T17:09:49.733Z,97064.44
2023-02-03T17:12:16.249Z,97073.91
2023-02-03T17:14:42.729Z,97077.94
2023-02-03T17:17:09.239Z,97076.25
2023-02-03T17:19:35.697Z,97069.69
2023-02-03T17:22:02.245Z,97071.97
2023-02-03T17:24:28.908Z,97077.06
2023-02-03T17:26:57.361Z,97080.53
2023-02-03T17:29:24.568Z,97080.88
2023-02-03T17:31:51.076Z,97087.00
2023-02-03T17:34:17.681Z,97086.13
2023-02-03T17:36:44.134Z,97090.47
2023-02-03T17:55:33.190Z,97094.75
2023-02-03T17:58:00.101Z,97094.16
2023-02-03T18:00:26.989Z,97094.44
2023-02-03T18:02:53.452Z,97093.94
2023-02-03T18:05:20.004Z,97098.00
2023-02-03T18:07:49.777Z,97093.94
2023-02-03T18:10:16.675Z,97100.34
2023-02-03T18:12:43.142Z,97100.84
2023-02-03T18:15:09.773Z,97085.09
2023-02-03T18:17:36.277Z,97084.88
2023-02-03T18:20:02.850Z,97089.41
2023-02-03T18:22:29.929Z,97090.09
2023-02-03T18:24:56.500Z,97095.47
2023-02-03T18:27:23.065Z,97088.31
2023-02-03T18:29:49.579Z,97096.06
2023-02-03T18:32:16.727Z,97103.47
2023-02-03T18:34:43.734Z,97103.22
2023-02-03T18:37:10.986Z,97092.25
2023-02-03T18:39:37.685Z,97092.72
2023-02-03T18:42:04.382Z,97085.06
2023-02-03T18:44:30.976Z,97083.59
2023-02-03T18:46:57.501Z,97073.34
2023-02-03T18:49:24.063Z,97069.03
2023-02-03T18:51:50.529Z,97061.78
2023-02-03T18:54:16.989Z,97059.06
2023-02-03T18:56:43.454Z,97059.47
2023-02-03T18:59:11.191Z,97073.50
2023-02-03T19:01:38.533Z,97076.25
2023-02-03T19:04:05.833Z,97077.22
2023-02-03T19:06:34.394Z,97088.09
2023-02-03T19:09:01.546Z,97089.22
2023-02-03T19:11:28.077Z,97077.81
2023-02-03T19:13:54.528Z,97083.00
2023-02-03T19:16:21.112Z,97085.13
2023-02-03T19:18:47.615Z,97095.25
2023-02-03T19:21:14.293Z,97088.50
2023-02-03T19:23:42.396Z,97082.00
2023-02-03T19:26:09.339Z,97085.34
2023-02-03T19:28:36.380Z,97085.78
2023-02-03T19:31:11.280Z,97082.03
2023-02-03T19:33:37.880Z,97076.81
2023-02-03T19:36:06.010Z,97072.38
2023-02-03T19:38:35.461Z,97068.56
2023-02-03T19:41:01.941Z,97070.97
2023-02-03T19:43:29.608Z,97066.56
2023-02-03T19:45:56.257Z,97072.63
2023-02-03T19:48:23.006Z,97068.75
2023-02-03T19:50:49.491Z,97071.69
2023-02-03T19:53:17.605Z,97083.09
2023-02-03T19:55:45.854Z,97079.69
2023-02-03T19:58:13.420Z,97077.50
2023-02-03T20:00:40.859Z,97069.66
2023-02-03T20:03:07.330Z,97078.69
2023-02-03T20:05:33.911Z,97088.34
2023-02-03T20:08:00.630Z,97085.09
2023-02-03T20:10:27.380Z,97083.09
2023-02-03T20:12:57.740Z,97081.63
2023-02-03T20:15:24.277Z,97085.81
2023-02-03T20:17:50.856Z,97083.50
2023-02-03T20:20:19.200Z,97088.47
2023-02-03T20:22:47.116Z,97089.13
2023-02-03T20:25:13.736Z,97083.41
2023-02-03T20:27:40.362Z,97081.78
2023-02-03T20:30:07.978Z,97089.06
2023-02-03T20:32:34.570Z,97086.47
2023-02-03T20:35:01.247Z,97076.59
2023-02-03T20:37:27.703Z,97072.16
2023-02-03T20:39:54.188Z,97075.47
2023-02-03T20:42:21.437Z,97078.34
2023-02-03T20:44:47.933Z,97074.31
2023-02-03T20:47:17.032Z,97082.81
2023-02-03T20:49:43.894Z,97083.63
2023-02-03T20:52:14.296Z,97095.34
2023-02-03T20:54:40.959Z,97087.16
2023-02-03T20:57:14.655Z,97098.03
2023-02-03T20:59:42.363Z,97094.31
2023-02-03T21:02:19.188Z,97084.78
2023-02-03T21:04:45.637Z,97084.78
2023-02-03T21:07:14.029Z,97088.50
2023-02-03T21:09:40.691Z,97095.78
2023-02-03T21:12:12.294Z,97100.31
2023-02-03T21:14:42.811Z,97101.63
2023-02-03T21:17:18.522Z,97101.19
2023-02-03T21:19:45.341Z,97100.44
2023-02-03T21:22:22.480Z,97099.16
2023-02-03T21:24:55.282Z,97096.72
2023-02-03T21:27:33.181Z,97096.91
2023-02-03T21:30:27.161Z,97087.41
2023-02-03T21:32:53.970Z,97082.53
2023-02-03T21:35:24.871Z,97083.47
2023-02-03T21:37:59.863Z,97083.81
2023-02-03T21:40:30.010Z,97082.06
2023-02-03T21:42:58.110Z,97088.22
2023-02-03T21:45:34.883Z,97074.31
2023-02-03T21:48:22.619Z,97079.72
2023-02-03T21:50:49.108Z,97088.28
2023-02-03T21:53:27.567Z,97084.50
2023-02-03T21:55:54.760Z,97085.13
2023-02-03T21:58:32.156Z,97086.25
2023-02-03T22:01:01.699Z,97101.03
2023-02-03T22:03:29.778Z,97096.81
2023-02-03T22:06:18.984Z,97096.69
2023-02-03T22:08:48.315Z,97092.50
2023-02-03T22:11:16.795Z,97100.53
2023-02-03T22:13:43.225Z,97100.88
2023-02-03T22:16:10.272Z,97100.09
2023-02-03T22:18:36.829Z,97094.66
2023-02-03T22:21:03.300Z,97091.75
2023-02-03T22:23:29.796Z,97096.22
2023-02-03T22:25:56.321Z,97095.78
2023-02-03T22:28:22.811Z,97090.34
2023-02-03T22:30:49.375Z,97091.94
2023-02-03T22:33:15.924Z,97091.66
2023-02-03T22:35:42.419Z,97086.41
2023-02-03T22:38:08.883Z,97090.53
2023-02-03T22:40:35.386Z,97091.72
2023-02-03T22:43:01.868Z,97084.22
2023-02-03T22:45:28.505Z,97096.72
2023-02-03T22:47:55.052Z,97097.53
2023-02-03T22:50:34.420Z,97092.56
2023-02-03T22:53:01.859Z,97098.28
2023-02-03T22:55:28.368Z,97091.34
2023-02-03T22:57:54.824Z,97101.66
2023-02-03T23:00:23.731Z,97117.88
2023-02-03T23:02:50.797Z,97114.66
2023-02-03T23:05:18.633Z,97121.06
2023-02-03T23:07:45.988Z,97130.44
2023-02-03T23:10:23.077Z,97120.75
2023-02-03T23:12:50.711Z,97129.22
2023-02-03T23:15:17.684Z,97119.41
2023-02-03T23:17:45.365Z,97111.97
2023-02-03T23:20:14.024Z,97104.00
2023-02-03T23:22:40.497Z,97103.09
2023-02-03T23:25:07.383Z,97105.47
2023-02-03T23:27:33.863Z,97104.22
2023-02-03T23:30:00.359Z,97110.94
2023-02-03T23:32:26.872Z,97110.41
2023-02-03T23:34:53.363Z,97119.09
2023-02-03T23:37:19.804Z,97115.06
2023-02-03T23:39:46.267Z,97126.50
2023-02-03T23:42:12.720Z,97125.78
2023-02-03T23:44:39.177Z,97131.09
2023-02-03T23:47:05.646Z,97127.16
2023-02-03T23:49:32.121Z,97137.84
2023-02-03T23:51:59.344Z,97144.88
2023-02-03T23:54:26.164Z,97136.97
2023-02-03T23:56:52.973Z,97136.00
2023-02-03T23:59:19.722Z,97127.34
